createdAt,value
2017-11-03T00:00:16.654Z,10.60
2017-11-03T00:02:44.418Z,10.70
2017-11-03T00:05:12.194Z,10.70
2017-11-03T00:07:39.189Z,10.70
2017-11-03T00:10:06.263Z,10.70
2017-11-03T00:12:34.026Z,10.70
2017-11-03T00:15:01.031Z,10.70
2017-11-03T00:17:28.031Z,10.70
2017-11-03T00:19:55.855Z,10.60
2017-11-03T00:22:22.849Z,10.50
2017-11-03T00:24:49.841Z,10.60
2017-11-03T00:27:16.846Z,10.60
2017-11-03T00:29:43.846Z,10.70
2017-11-03T00:32:10.854Z,10.50
2017-11-03T00:34:37.846Z,10.40
2017-11-03T00:37:04.859Z,10.40
2017-11-03T00:39:31.849Z,10.40
2017-11-03T00:41:59.614Z,10.50
2017-11-03T00:44:27.370Z,10.60
2017-11-03T00:46:55.130Z,10.60
2017-11-03T00:49:22.118Z,10.60
2017-11-03T00:51:49.121Z,10.50
2017-11-03T00:54:16.114Z,10.50
2017-11-03T00:56:43.109Z,10.40
2017-11-03T00:59:10.101Z,10.40
2017-11-03T01:01:37.098Z,10.40
2017-11-03T01:04:04.094Z,10.50
2017-11-03T01:06:31.095Z,10.50
2017-11-03T01:08:58.083Z,10.50
2017-11-03T01:11:25.081Z,10.40
2017-11-03T01:13:52.074Z,10.40
2017-11-03T01:16:19.074Z,10.50
2017-11-03T01:18:46.834Z,10.50
2017-11-03T01:21:13.829Z,10.40
2017-11-03T01:23:40.826Z,10.50
2017-11-03T01:26:07.826Z,10.50
2017-11-03T01:28:34.822Z,10.40
2017-11-03T01:31:02.583Z,10.40
2017-11-03T01:33:29.578Z,10.40
2017-11-03T01:35:56.569Z,10.40
2017-11-03T01:38:23.574Z,10.40
2017-11-03T01:40:50.566Z,10.40
2017-11-03T01:43:18.349Z,10.30
2017-11-03T01:45:46.106Z,10.30
2017-11-03T01:48:13.875Z,10.30
2017-11-03T01:50:41.654Z,10.30
2017-11-03T01:53:09.404Z,10.20
2017-11-03T01:55:37.163Z,10.10
2017-11-03T01:58:04.932Z,10.00
2017-11-03T02:00:31.930Z,10.00
2017-11-03T02:02:58.930Z,10.00
2017-11-03T02:05:25.926Z,10.00
2017-11-03T02:07:52.919Z,9.90
2017-11-03T02:10:19.916Z,9.90
2017-11-03T02:12:46.906Z,9.90
2017-11-03T02:15:13.909Z,9.90
2017-11-03T02:17:40.900Z,9.90
2017-11-03T02:20:07.894Z,9.90
2017-11-03T02:22:34.889Z,10.00
2017-11-03T02:25:01.897Z,10.10
2017-11-03T02:27:28.895Z,10.10
2017-11-03T02:29:55.903Z,10.00
2017-11-03T02:32:22.898Z,10.00
2017-11-03T02:34:50.514Z,10.00
2017-11-03T02:37:18.287Z,9.90
2017-11-03T02:39:46.095Z,9.90
2017-11-03T02:42:13.106Z,9.90
2017-11-03T02:44:40.202Z,9.90
2017-11-03T02:47:07.209Z,9.80
2017-11-03T02:49:34.422Z,9.80
2017-11-03T02:52:01.411Z,9.90
2017-11-03T02:54:28.418Z,10.00
2017-11-03T02:56:56.174Z,10.10
2017-11-03T02:59:23.949Z,10.20
2017-11-03T03:01:51.710Z,10.20
2017-11-03T03:04:19.478Z,10.20
2017-11-03T03:06:47.238Z,10.20
2017-11-03T03:09:15.007Z,10.10
2017-11-03T03:11:42.980Z,10.20
2017-11-03T03:14:10.778Z,10.00
2017-11-03T03:16:37.775Z,10.00
2017-11-03T03:19:05.530Z,10.00
2017-11-03T03:21:32.542Z,9.90
2017-11-03T03:23:59.534Z,10.00
2017-11-03T03:26:27.318Z,10.00
2017-11-03T03:28:54.310Z,10.00
2017-11-03T03:31:21.316Z,9.90
2017-11-03T03:33:48.308Z,9.80
2017-11-03T03:36:15.315Z,9.80
2017-11-03T03:38:42.318Z,9.80
2017-11-03T03:41:10.547Z,9.80
2017-11-03T03:43:37.522Z,9.70
2017-11-03T03:46:04.522Z,9.80
2017-11-03T03:48:31.509Z,9.80
2017-11-03T03:50:58.514Z,9.80
2017-11-03T03:53:25.509Z,9.90
2017-11-03T03:55:52.523Z,9.90
2017-11-03T03:58:19.514Z,9.90
2017-11-03T04:00:47.284Z,9.80
2017-11-03T04:03:15.030Z,9.80
2017-11-03T04:05:42.042Z,9.80
2017-11-03T04:08:09.042Z,9.80
2017-11-03T04:10:36.831Z,9.80
2017-11-03T04:13:03.827Z,9.80
2017-11-03T04:15:30.816Z,9.80
2017-11-03T04:17:57.818Z,9.80
2017-11-03T04:20:25.404Z,9.80
2017-11-03T04:22:52.401Z,9.80
2017-11-03T04:25:19.398Z,9.80
2017-11-03T04:27:46.395Z,9.90
2017-11-03T04:30:14.278Z,9.90
2017-11-03T04:32:42.049Z,10.00
2017-11-03T04:35:09.810Z,10.10
2017-11-03T04:37:36.822Z,10.00
2017-11-03T04:40:03.823Z,10.00
2017-11-03T04:42:31.590Z,10.10
2017-11-03T04:44:59.766Z,10.10
2017-11-03T04:47:26.779Z,10.10
2017-11-03T04:49:53.774Z,10.00
2017-11-03T04:52:20.774Z,10.00
2017-11-03T04:54:47.771Z,10.10
2017-11-03T04:57:15.769Z,10.10
2017-11-03T04:59:42.766Z,10.20
2017-11-03T05:02:09.807Z,10.10
2017-11-03T05:04:36.801Z,10.00
2017-11-03T05:07:03.811Z,10.00
2017-11-03T05:09:30.809Z,9.90
2017-11-03T05:11:57.795Z,9.90
2017-11-03T05:14:24.802Z,9.90
2017-11-03T05:16:51.796Z,9.90
2017-11-03T05:19:18.796Z,10.00
2017-11-03T05:21:45.794Z,10.00
2017-11-03T05:24:12.794Z,9.90
2017-11-03T05:26:40.553Z,9.90
2017-11-03T05:29:08.317Z,9.80
2017-11-03T05:31:36.082Z,9.80
2017-11-03T05:34:03.851Z,9.80
2017-11-03T05:36:30.858Z,9.80
2017-11-03T05:38:57.866Z,9.80
2017-11-03T05:41:24.858Z,9.70
2017-11-03T05:43:51.858Z,9.70
2017-11-03T05:46:18.852Z,9.80
2017-11-03T05:48:45.845Z,9.80
2017-11-03T05:51:12.837Z,9.90
2017-11-03T05:53:39.882Z,9.90
2017-11-03T05:56:06.874Z,9.80
2017-11-03T06:01:07.291Z,9.80
2017-11-03T06:03:34.305Z,9.80
2017-11-03T06:06:01.309Z,9.90
2017-11-03T06:08:28.342Z,9.90
2017-11-03T06:10:56.649Z,9.90
2017-11-03T06:13:23.638Z,9.90
2017-11-03T06:15:50.640Z,9.90
2017-11-03T06:18:17.635Z,9.90
2017-11-03T06:20:44.638Z,9.90
2017-11-03T06:23:11.641Z,9.90
2017-11-03T06:25:39.402Z,10.00
2017-11-03T06:28:07.169Z,10.00
2017-11-03T06:30:35.013Z,10.00
2017-11-03T06:33:02.111Z,9.90
2017-11-03T06:35:29.106Z,9.90
2017-11-03T06:37:56.242Z,9.80
2017-11-03T06:40:23.245Z,9.80
2017-11-03T06:42:50.234Z,9.90
2017-11-03T06:45:18.019Z,10.10
2017-11-03T06:47:45.011Z,10.00
2017-11-03T06:50:12.036Z,10.10
2017-11-03T06:52:39.790Z,10.10
2017-11-03T06:55:07.548Z,9.90
2017-11-03T06:57:35.313Z,9.90
2017-11-03T07:00:03.133Z,9.70
2017-11-03T07:02:30.125Z,9.70
2017-11-03T07:04:57.972Z,9.80
2017-11-03T07:07:24.966Z,9.80
2017-11-03T07:09:52.097Z,9.90
2017-11-03T07:12:19.137Z,9.70
2017-11-03T07:14:46.125Z,9.70
2017-11-03T07:17:13.123Z,9.90
2017-11-03T07:19:40.881Z,10.00
2017-11-03T07:22:08.651Z,10.00
2017-11-03T07:24:36.401Z,10.00
2017-11-03T07:27:04.167Z,10.10
2017-11-03T07:29:31.978Z,10.20
2017-11-03T07:31:58.970Z,10.20
2017-11-03T07:34:25.966Z,10.30
2017-11-03T07:36:52.969Z,10.40
2017-11-03T07:39:21.005Z,10.50
2017-11-03T07:41:48.003Z,10.50
2017-11-03T07:44:15.044Z,10.20
2017-11-03T07:46:42.062Z,10.20
2017-11-03T07:49:09.055Z,10.10
2017-11-03T07:51:36.046Z,10.10
2017-11-03T07:54:03.038Z,10.20
2017-11-03T07:56:30.044Z,10.20
2017-11-03T07:58:57.031Z,10.30
2017-11-03T08:01:24.040Z,10.50
2017-11-03T08:03:51.035Z,10.60
2017-11-03T08:06:18.017Z,10.70
2017-11-03T08:08:45.022Z,10.50
2017-11-03T08:11:12.018Z,10.50
2017-11-03T08:13:39.019Z,10.70
2017-11-03T08:16:06.094Z,10.90
2017-11-03T08:18:33.958Z,11.20
2017-11-03T08:21:01.054Z,11.10
2017-11-03T08:23:28.107Z,11.20
2017-11-03T08:25:55.102Z,11.30
2017-11-03T08:28:22.106Z,11.30
2017-11-03T08:30:49.090Z,11.20
2017-11-03T08:33:16.089Z,11.30
2017-11-03T08:35:43.077Z,11.40
2017-11-03T08:38:10.081Z,11.40
2017-11-03T08:40:37.074Z,11.40
2017-11-03T08:43:04.113Z,11.40
2017-11-03T08:45:31.106Z,11.50
2017-11-03T08:47:58.866Z,11.60
2017-11-03T08:50:26.627Z,11.50
2017-11-03T08:52:54.382Z,11.70
2017-11-03T08:55:22.145Z,11.70
2017-11-03T08:57:49.906Z,11.70
2017-11-03T09:00:17.680Z,11.70
2017-11-03T09:02:45.431Z,11.80
2017-11-03T09:05:13.194Z,11.90
2017-11-03T09:07:40.186Z,11.90
2017-11-03T09:10:07.182Z,12.00
2017-11-03T09:12:34.174Z,12.10
2017-11-03T09:15:01.171Z,12.10
2017-11-03T09:17:28.166Z,12.00
2017-11-03T09:19:55.167Z,12.10
2017-11-03T09:22:22.157Z,12.20
2017-11-03T09:24:49.153Z,12.20
2017-11-03T09:27:16.164Z,12.30
2017-11-03T09:29:43.158Z,12.40
2017-11-03T09:32:10.914Z,12.40
2017-11-03T09:34:38.674Z,12.40
2017-11-03T09:37:05.681Z,12.40
2017-11-03T09:39:32.673Z,12.40
2017-11-03T09:42:00.425Z,12.40
2017-11-03T09:44:27.438Z,12.40
2017-11-03T09:49:27.951Z,12.50
2017-11-03T09:51:54.937Z,12.60
2017-11-03T09:54:21.949Z,12.70
2017-11-03T09:56:48.946Z,12.60
2017-11-03T09:59:15.939Z,12.70
2017-11-03T10:01:42.939Z,12.80
2017-11-03T10:04:09.929Z,12.80
2017-11-03T10:06:36.932Z,12.80
2017-11-03T10:09:03.926Z,12.90
2017-11-03T10:11:30.926Z,12.90
2017-11-03T10:13:58.689Z,13.30
2017-11-03T10:16:26.450Z,13.40
2017-11-03T10:18:53.447Z,13.30
2017-11-03T10:21:20.456Z,13.30
2017-11-03T10:23:48.221Z,13.40
2017-11-03T10:26:16.053Z,13.50
2017-11-03T10:28:43.052Z,13.50
2017-11-03T10:31:10.046Z,13.60
2017-11-03T10:33:37.034Z,13.70
2017-11-03T10:36:04.512Z,13.80
2017-11-03T10:38:31.962Z,14.10
2017-11-03T10:40:59.404Z,14.30
2017-11-03T10:43:26.852Z,14.40
2017-11-03T10:45:54.291Z,14.40
2017-11-03T10:48:22.513Z,14.40
2017-11-03T10:50:49.959Z,14.30
2017-11-03T10:53:17.416Z,14.30
2017-11-03T10:55:44.875Z,14.40
2017-11-03T10:58:12.325Z,14.30
2017-11-03T11:00:39.759Z,14.20
2017-11-03T11:03:07.211Z,14.40
2017-11-03T11:05:35.428Z,14.60
2017-11-03T11:08:02.884Z,14.60
2017-11-03T11:10:30.326Z,14.70
2017-11-03T11:12:57.774Z,14.50
2017-11-03T11:15:25.218Z,14.60
2017-11-03T11:17:52.668Z,14.60
2017-11-03T11:20:20.877Z,14.80
2017-11-03T11:22:48.320Z,14.80
2017-11-03T11:25:15.758Z,14.80
2017-11-03T11:27:43.200Z,14.80
2017-11-03T11:30:11.405Z,15.10
2017-11-03T11:32:38.877Z,15.10
2017-11-03T11:35:06.330Z,15.00
2017-11-03T11:37:33.321Z,15.20
2017-11-03T11:40:01.089Z,15.20
2017-11-03T11:42:28.846Z,15.20
2017-11-03T11:44:56.612Z,15.20
2017-11-03T11:47:23.618Z,15.20
2017-11-03T11:49:50.613Z,15.20
2017-11-03T11:52:18.371Z,15.20
2017-11-03T11:54:46.294Z,15.30
2017-11-03T11:57:13.290Z,15.20
2017-11-03T11:59:41.057Z,15.40
2017-11-03T12:02:08.810Z,15.30
2017-11-03T12:04:36.580Z,15.40
2017-11-03T12:07:04.335Z,15.30
2017-11-03T12:09:32.097Z,15.50
2017-11-03T12:11:59.853Z,15.70
2017-11-03T12:14:26.862Z,15.70
2017-11-03T12:16:53.858Z,15.70
2017-11-03T12:19:21.617Z,15.90
2017-11-03T12:21:49.377Z,15.90
2017-11-03T12:24:16.508Z,15.90
2017-11-03T12:26:43.500Z,16.00
2017-11-03T12:29:10.506Z,15.90
2017-11-03T12:31:37.490Z,15.90
2017-11-03T12:34:04.478Z,15.90
2017-11-03T12:36:31.571Z,15.90
2017-11-03T12:38:58.562Z,15.90
2017-11-03T12:41:25.557Z,15.80
2017-11-03T12:43:53.338Z,15.80
2017-11-03T12:46:21.079Z,15.80
2017-11-03T12:48:48.836Z,15.90
2017-11-03T12:51:16.598Z,16.10
2017-11-03T12:53:44.358Z,16.00
2017-11-03T12:56:11.357Z,16.00
2017-11-03T12:58:38.346Z,15.90
2017-11-03T13:01:05.351Z,15.70
2017-11-03T13:03:32.338Z,15.80
2017-11-03T13:05:59.345Z,15.80
2017-11-03T13:08:26.351Z,15.60
2017-11-03T13:10:54.119Z,15.60
2017-11-03T13:13:21.117Z,15.60
2017-11-03T13:15:48.110Z,15.60
2017-11-03T13:18:15.101Z,15.70
2017-11-03T13:20:42.130Z,15.90
2017-11-03T13:23:09.135Z,16.00
2017-11-03T13:25:36.894Z,16.10
2017-11-03T13:28:04.654Z,16.00
2017-11-03T13:30:32.409Z,16.00
2017-11-03T13:32:59.429Z,16.00
2017-11-03T13:35:26.406Z,16.00
2017-11-03T13:37:54.171Z,15.90
2017-11-03T13:40:21.932Z,16.00
2017-11-03T13:42:49.697Z,16.20
2017-11-03T13:45:17.461Z,16.30
2017-11-03T13:47:45.226Z,16.20
2017-11-03T13:50:12.991Z,16.10
2017-11-03T13:52:40.758Z,15.90
2017-11-03T13:55:08.525Z,15.80
2017-11-03T13:57:36.287Z,15.80
2017-11-03T14:00:04.039Z,15.70
2017-11-03T14:02:32.578Z,15.90
2017-11-03T14:05:00.585Z,15.90
2017-11-03T14:07:28.068Z,16.40
2017-11-03T14:09:55.514Z,16.50
2017-11-03T14:12:23.731Z,16.10
2017-11-03T14:14:51.179Z,16.00
2017-11-03T14:17:18.627Z,16.10
2017-11-03T14:19:46.082Z,16.10
2017-11-03T14:22:13.543Z,16.00
2017-11-03T14:24:41.000Z,15.90
2017-11-03T14:27:08.452Z,15.90
2017-11-03T14:29:35.894Z,15.90
2017-11-03T14:32:03.337Z,15.90
2017-11-03T14:34:31.550Z,15.80
2017-11-03T14:36:58.995Z,15.70
2017-11-03T14:39:26.452Z,15.60
2017-11-03T14:41:53.896Z,15.50
2017-11-03T14:44:21.338Z,15.50
2017-11-03T14:46:48.785Z,15.30
2017-11-03T14:49:16.993Z,15.20
2017-11-03T14:51:44.453Z,15.20
2017-11-03T14:54:11.903Z,15.10
2017-11-03T14:56:39.350Z,15.10
2017-11-03T14:59:06.830Z,15.00
2017-11-03T15:01:34.289Z,15.00
2017-11-03T15:04:01.731Z,15.00
2017-11-03T15:06:29.165Z,14.90
2017-11-03T15:08:56.606Z,14.80
2017-11-03T15:11:24.815Z,14.70
2017-11-03T15:13:52.283Z,14.60
2017-11-03T15:16:19.727Z,14.60
2017-11-03T15:18:47.174Z,14.50
2017-11-03T15:21:14.619Z,14.50
2017-11-03T15:23:42.065Z,14.40
2017-11-03T15:26:10.279Z,14.30
2017-11-03T15:28:37.727Z,14.40
2017-11-03T15:31:05.179Z,14.30
2017-11-03T15:33:32.634Z,14.20
2017-11-03T15:36:00.091Z,14.10
2017-11-03T15:38:27.528Z,14.10
2017-11-03T15:40:54.976Z,14.00
2017-11-03T15:43:23.230Z,13.80
2017-11-03T15:45:50.671Z,13.90
2017-11-03T15:48:18.124Z,13.70
2017-11-03T15:50:45.579Z,13.60
2017-11-03T15:53:13.023Z,13.40
2017-11-03T15:55:40.467Z,13.30
2017-11-03T15:58:07.915Z,13.20
2017-11-03T16:00:35.372Z,13.10
2017-11-03T16:03:02.804Z,13.10
2017-11-03T16:05:30.251Z,13.00
2017-11-03T16:07:58.473Z,12.80
2017-11-03T16:10:25.914Z,12.70
2017-11-03T16:12:53.368Z,12.60
2017-11-03T16:15:20.806Z,12.60
2017-11-03T16:17:48.255Z,12.50
2017-11-03T16:20:15.691Z,12.30
2017-11-03T16:22:43.911Z,12.00
2017-11-03T16:25:11.360Z,12.00
2017-11-03T16:27:38.817Z,11.90
2017-11-03T16:30:06.255Z,11.70
2017-11-03T16:32:33.698Z,11.50
2017-11-03T16:35:01.906Z,11.40
2017-11-03T16:37:29.362Z,11.30
2017-11-03T16:39:56.809Z,11.30
2017-11-03T16:42:23.810Z,11.20
2017-11-03T16:44:50.809Z,11.10
2017-11-03T16:47:17.806Z,10.90
2017-11-03T16:49:44.797Z,10.80
2017-11-03T16:52:11.813Z,10.60
2017-11-03T16:54:39.574Z,10.40
2017-11-03T16:57:07.330Z,10.40
2017-11-03T16:59:35.093Z,10.30
2017-11-03T17:02:02.851Z,10.30
2017-11-03T17:04:29.859Z,10.20
2017-11-03T17:06:56.845Z,10.20
2017-11-03T17:09:24.614Z,10.20
2017-11-03T17:11:52.370Z,10.10
2017-11-03T17:14:20.132Z,10.00
2017-11-03T17:16:47.125Z,10.00
2017-11-03T17:19:14.118Z,9.90
2017-11-03T17:21:41.108Z,9.80
2017-11-03T17:24:08.099Z,9.70
2017-11-03T17:26:35.088Z,9.70
2017-11-03T17:29:02.077Z,9.70
2017-11-03T17:31:29.066Z,9.60
2017-11-03T17:33:56.826Z,9.50
2017-11-03T17:36:24.573Z,9.40
2017-11-03T17:38:52.334Z,9.40
2017-11-03T17:41:19.325Z,9.30
2017-11-03T17:43:46.315Z,9.30
2017-11-03T17:46:13.301Z,9.20
2017-11-03T17:48:40.293Z,9.20
2017-11-03T17:51:07.286Z,9.20
2017-11-03T17:53:34.282Z,9.10
2017-11-03T17:56:01.280Z,9.10
2017-11-03T17:58:28.275Z,9.00
2017-11-03T18:00:55.261Z,9.00
2017-11-03T18:03:23.013Z,8.90
2017-11-03T18:05:50.946Z,8.90
2017-11-03T18:08:17.942Z,8.90
2017-11-03T18:10:45.703Z,8.80
2017-11-03T18:13:13.505Z,8.80
2017-11-03T18:15:40.491Z,8.80
2017-11-03T18:18:07.482Z,8.80
2017-11-03T18:20:34.467Z,8.70
2017-11-03T18:23:01.470Z,8.60
2017-11-03T18:25:28.470Z,8.60
2017-11-03T18:27:55.441Z,8.50
2017-11-03T18:30:22.445Z,8.50
2017-11-03T18:32:49.476Z,8.40
2017-11-03T18:35:16.509Z,8.40
2017-11-03T18:37:43.485Z,8.30
2017-11-03T18:40:10.595Z,8.30
2017-11-03T18:42:37.591Z,8.30
2017-11-03T18:45:04.637Z,8.20
2017-11-03T18:47:31.613Z,8.20
2017-11-03T18:49:58.625Z,8.20
2017-11-03T18:52:25.663Z,8.10
2017-11-03T18:54:52.637Z,8.20
2017-11-03T18:57:20.444Z,8.20
2017-11-03T18:59:47.413Z,8.10
2017-11-03T19:02:17.307Z,8.30
2017-11-03T19:04:44.302Z,8.40
2017-11-03T19:07:12.065Z,8.40
2017-11-03T19:09:39.880Z,8.30
2017-11-03T19:12:06.914Z,8.30
2017-11-03T19:14:33.902Z,8.20
2017-11-03T19:17:00.950Z,8.10
2017-11-03T19:19:27.943Z,8.00
2017-11-03T19:21:54.977Z,8.00
2017-11-03T19:24:22.719Z,7.90
2017-11-03T19:26:50.522Z,7.80
2017-11-03T19:29:17.493Z,7.80
2017-11-03T19:31:44.490Z,7.80
2017-11-03T19:34:11.525Z,8.20
2017-11-03T19:36:39.269Z,8.00
2017-11-03T19:39:06.260Z,8.00
2017-11-03T19:41:33.356Z,7.90
2017-11-03T19:44:00.381Z,7.80
2017-11-03T19:46:27.407Z,7.70
2017-11-03T19:48:54.390Z,7.60
2017-11-03T19:51:21.382Z,7.60
2017-11-03T19:53:48.378Z,7.50
2017-11-03T19:56:15.416Z,7.50
2017-11-03T19:58:42.484Z,7.40
2017-11-03T20:01:09.513Z,7.30
2017-11-03T20:03:36.671Z,7.20
2017-11-03T20:06:04.103Z,7.10
2017-11-03T20:08:31.726Z,7.10
2017-11-03T20:10:59.918Z,7.00
2017-11-03T20:13:27.426Z,7.00
2017-11-03T20:15:55.938Z,7.10
2017-11-03T20:18:23.463Z,7.00
2017-11-03T20:20:50.961Z,7.00
2017-11-03T20:23:18.491Z,7.00
2017-11-03T20:25:46.329Z,6.90
2017-11-03T20:28:13.781Z,6.90
2017-11-03T20:30:40.792Z,6.90
2017-11-03T20:33:08.051Z,6.80
2017-11-03T20:35:35.081Z,6.90
2017-11-03T20:38:02.121Z,6.80
2017-11-03T20:40:30.419Z,6.80
2017-11-03T20:42:57.464Z,6.80
2017-11-03T20:45:24.451Z,6.80
2017-11-03T20:47:51.865Z,6.70
2017-11-03T20:50:18.855Z,6.70
2017-11-03T20:52:45.844Z,6.70
2017-11-03T20:55:12.861Z,6.70
2017-11-03T20:57:40.609Z,6.70
2017-11-03T21:00:07.657Z,6.70
2017-11-03T21:02:34.693Z,6.70
2017-11-03T21:05:01.702Z,6.70
2017-11-03T21:07:28.693Z,6.80
2017-11-03T21:09:55.682Z,6.80
2017-11-03T21:12:22.726Z,6.80
2017-11-03T21:14:49.775Z,6.90
2017-11-03T21:17:16.765Z,6.90
2017-11-03T21:19:43.856Z,6.90
2017-11-03T21:22:11.594Z,6.90
2017-11-03T21:24:39.406Z,6.90
2017-11-03T21:27:07.438Z,6.90
2017-11-03T21:29:35.214Z,6.80
2017-11-03T21:32:02.211Z,6.80
2017-11-03T21:34:29.218Z,6.70
2017-11-03T21:36:56.221Z,6.70
2017-11-03T21:39:23.270Z,6.80
2017-11-03T21:41:50.246Z,6.70
2017-11-03T21:44:17.295Z,6.60
2017-11-03T21:46:44.332Z,6.50
2017-11-03T21:49:12.074Z,6.50
2017-11-03T21:51:39.124Z,6.50
2017-11-03T21:54:06.921Z,6.40
2017-11-03T21:56:33.923Z,6.40
2017-11-03T21:59:00.982Z,6.30
2017-11-03T22:01:28.751Z,6.40
2017-11-03T22:03:56.510Z,6.30
2017-11-03T22:06:24.347Z,6.40
2017-11-03T22:08:51.381Z,6.30
2017-11-03T22:11:18.381Z,6.30
2017-11-03T22:13:46.142Z,6.30
2017-11-03T22:16:14.426Z,6.30
2017-11-03T22:18:42.639Z,6.30
2017-11-03T22:21:10.086Z,6.20
2017-11-03T22:23:37.539Z,6.20
2017-11-03T22:26:04.984Z,6.10
2017-11-03T22:28:32.491Z,6.10
2017-11-03T22:31:01.079Z,6.10
2017-11-03T22:33:28.520Z,6.10
2017-11-03T22:35:55.965Z,6.20
2017-11-03T22:38:23.402Z,6.20
2017-11-03T22:40:50.855Z,6.20
2017-11-03T22:43:18.851Z,6.20
2017-11-03T22:45:46.294Z,6.10
2017-11-03T22:48:13.745Z,6.10
2017-11-03T22:50:41.712Z,6.00
2017-11-03T22:53:09.196Z,6.00
2017-11-03T22:55:36.622Z,6.00
2017-11-03T22:58:04.523Z,6.10
2017-11-03T23:00:32.475Z,6.00
2017-11-03T23:02:59.923Z,6.00
2017-11-03T23:05:27.396Z,6.10
2017-11-03T23:07:54.847Z,6.10
2017-11-03T23:10:22.915Z,6.20
2017-11-03T23:12:50.415Z,6.10
2017-11-03T23:15:18.611Z,6.10
2017-11-03T23:17:46.056Z,6.10
2017-11-03T23:20:13.496Z,6.10
2017-11-03T23:22:41.715Z,6.10
2017-11-03T23:25:09.156Z,6.00
2017-11-03T23:27:36.602Z,6.00
2017-11-03T23:30:04.276Z,6.00
2017-11-03T23:32:31.720Z,6.00
2017-11-03T23:34:59.165Z,5.90
2017-11-03T23:37:26.605Z,6.00
2017-11-03T23:39:54.823Z,5.90
2017-11-03T23:42:22.269Z,5.90
2017-11-03T23:44:49.738Z,5.80
2017-11-03T23:47:17.185Z,5.80
2017-11-03T23:49:44.623Z,5.80
2017-11-03T23:52:12.072Z,5.80
2017-11-03T23:54:40.275Z,5.80
2017-11-03T23:57:07.736Z,5.80
2017-11-03T23:59:36.194Z,5.80
